createdAt,value
2022-12-18T00:00:32.472Z,101593.11
2022-12-18T00:03:04.070Z,101591.60
2022-12-18T00:05:36.539Z,101591.72
2022-12-18T00:08:09.473Z,101593.73
2022-12-18T00:10:41.188Z,101599.02
2022-12-18T00:13:12.756Z,101597.89
2022-12-18T00:15:44.540Z,101600.63
2022-12-18T00:18:18.966Z,101600.88
2022-12-18T00:20:52.320Z,101604.73
2022-12-18T00:23:23.842Z,101602.00
2022-12-18T00:25:55.323Z,101604.56
2022-12-18T00:28:28.040Z,101602.42
2022-12-18T00:31:06.138Z,101604.59
2022-12-18T00:33:38.541Z,101611.36
2022-12-18T00:36:14.137Z,101618.13
2022-12-18T00:38:45.867Z,101623.14
2022-12-18T00:41:39.944Z,101626.58
2022-12-18T00:44:13.179Z,101627.99
2022-12-18T00:46:45.995Z,101630.48
2022-12-18T00:49:18.559Z,101635.16
2022-12-18T00:51:51.570Z,101640.23
2022-12-18T00:54:23.452Z,101646.27
2022-12-18T00:56:56.420Z,101652.22
2022-12-18T00:59:28.347Z,101659.05
2022-12-18T01:02:00.013Z,101664.67
2022-12-18T01:04:33.468Z,101667.30
2022-12-18T01:07:05.074Z,101667.66
2022-12-18T01:09:36.991Z,101669.36
2022-12-18T01:12:10.229Z,101668.69
2022-12-18T01:14:42.141Z,101672.63
2022-12-18T01:17:13.812Z,101675.15
2022-12-18T01:19:46.025Z,101678.02
2022-12-18T01:22:17.642Z,101682.55
2022-12-18T01:24:49.278Z,101691.98
2022-12-18T01:27:20.848Z,101695.46
2022-12-18T01:29:53.357Z,101696.55
2022-12-18T01:32:25.452Z,101697.14
2022-12-18T01:34:57.082Z,101700.47
2022-12-18T01:37:28.777Z,101691.81
2022-12-18T01:40:00.420Z,101690.91
2022-12-18T01:42:32.071Z,101696.15
2022-12-18T01:45:24.017Z,101702.79
2022-12-18T01:47:57.929Z,101707.05
2022-12-18T01:50:33.794Z,101706.74
2022-12-18T01:53:08.644Z,101703.44
2022-12-18T01:55:45.286Z,101701.95
2022-12-18T01:58:18.052Z,101709.50
2022-12-18T02:00:50.067Z,101720.98
2022-12-18T02:03:21.824Z,101723.86
2022-12-18T02:06:00.078Z,101728.98
2022-12-18T02:08:36.646Z,101732.73
2022-12-18T02:11:13.687Z,101735.45
2022-12-18T02:13:55.282Z,101734.08
2022-12-18T02:16:32.840Z,101735.66
2022-12-18T02:19:08.992Z,101742.41
2022-12-18T02:21:51.350Z,101747.21
2022-12-18T02:24:36.788Z,101746.64
2022-12-18T02:27:10.938Z,101755.27
2022-12-18T02:29:54.331Z,101762.67
2022-12-18T02:32:34.139Z,101767.51
2022-12-18T02:35:08.734Z,101770.39
2022-12-18T02:37:41.719Z,101770.01
2022-12-18T02:40:16.546Z,101769.40
2022-12-18T02:42:46.209Z,101774.34
2022-12-18T02:45:18.452Z,101781.70
2022-12-18T02:47:52.278Z,101784.70
2022-12-18T02:50:31.452Z,101794.67
2022-12-18T02:53:12.836Z,101796.82
2022-12-18T02:55:57.025Z,101799.18
2022-12-18T02:58:36.922Z,101803.74
2022-12-18T03:01:17.843Z,101806.73
2022-12-18T03:03:55.047Z,101806.61
2022-12-18T03:06:31.928Z,101809.60
2022-12-18T03:09:10.789Z,101810.88
2022-12-18T03:12:08.209Z,101812.27
2022-12-18T03:14:43.564Z,101822.59
2022-12-18T03:17:20.127Z,101820.77
2022-12-18T03:19:55.012Z,101819.63
2022-12-18T03:22:29.936Z,101823.98
2022-12-18T03:25:03.820Z,101825.80
2022-12-18T03:27:39.288Z,101823.54
2022-12-18T03:30:15.643Z,101826.33
2022-12-18T03:32:50.827Z,101830.65
2022-12-18T03:35:29.122Z,101836.39
2022-12-18T03:38:00.988Z,101835.84
2022-12-18T03:40:42.272Z,101835.33
2022-12-18T03:43:19.472Z,101838.14
2022-12-18T03:45:55.495Z,101844.22
2022-12-18T03:48:36.761Z,101847.36
2022-12-18T03:51:12.757Z,101856.63
2022-12-18T03:53:53.177Z,101857.14
2022-12-18T03:56:26.656Z,101861.29
2022-12-18T03:58:59.427Z,101865.02
2022-12-18T04:01:36.399Z,101865.53
2022-12-18T04:04:10.994Z,101875.80
2022-12-18T04:06:43.503Z,101886.20
2022-12-18T04:09:15.381Z,101889.05
2022-12-18T04:11:47.074Z,101891.73
2022-12-18T04:14:18.919Z,101896.96
2022-12-18T04:16:50.618Z,101902.91
2022-12-18T04:19:22.216Z,101910.45
2022-12-18T04:21:53.889Z,101907.89
2022-12-18T04:24:25.580Z,101910.84
2022-12-18T04:26:57.186Z,101910.47
2022-12-18T04:29:32.635Z,101917.14
2022-12-18T04:32:09.048Z,101913.33
2022-12-18T04:34:40.645Z,101914.30
2022-12-18T04:37:12.608Z,101921.02
2022-12-18T04:39:44.345Z,101926.31
2022-12-18T04:42:15.842Z,101935.17
2022-12-18T04:44:47.323Z,101939.60
2022-12-18T04:47:18.889Z,101942.11
2022-12-18T04:49:52.864Z,101940.73
2022-12-18T04:52:24.558Z,101943.52
2022-12-18T04:54:56.077Z,101949.96
2022-12-18T04:57:27.794Z,101947.54
2022-12-18T04:59:59.405Z,101942.77
2022-12-18T05:02:31.166Z,101944.75
2022-12-18T05:05:02.813Z,101944.95
2022-12-18T05:07:34.522Z,101946.19
2022-12-18T05:10:06.913Z,101945.91
2022-12-18T05:13:00.058Z,101951.65
2022-12-18T05:15:34.796Z,101954.55
2022-12-18T05:18:07.354Z,101956.98
2022-12-18T05:20:38.844Z,101956.22
2022-12-18T05:23:10.556Z,101954.51
2022-12-18T05:25:42.010Z,101962.19
2022-12-18T05:28:13.576Z,101965.63
2022-12-18T05:30:45.062Z,101969.23
2022-12-18T05:33:16.586Z,101972.74
2022-12-18T05:35:52.456Z,101971.56
2022-12-18T05:38:24.746Z,101971.11
2022-12-18T05:40:57.084Z,101979.34
2022-12-18T05:43:30.050Z,101979.08
2022-12-18T05:46:05.755Z,101980.11
2022-12-18T05:48:37.586Z,101983.23
2022-12-18T05:51:11.212Z,101980.10
2022-12-18T05:53:43.593Z,101978.00
2022-12-18T05:56:17.527Z,101984.48
2022-12-18T05:58:50.253Z,101987.82
2022-12-18T06:01:24.306Z,101998.45
2022-12-18T06:03:56.405Z,101993.95
2022-12-18T06:06:29.784Z,101999.73
2022-12-18T06:09:02.631Z,102004.40
2022-12-18T06:11:34.244Z,102010.26
2022-12-18T06:14:06.384Z,102013.71
2022-12-18T06:16:38.116Z,102020.74
2022-12-18T06:19:09.953Z,102020.52
2022-12-18T06:21:41.438Z,102027.60
2022-12-18T06:24:13.041Z,102032.13
2022-12-18T06:26:44.543Z,102035.26
2022-12-18T06:29:16.153Z,102041.45
2022-12-18T06:31:47.787Z,102042.20
2022-12-18T06:34:19.309Z,102044.40
2022-12-18T06:36:50.892Z,102052.86
2022-12-18T06:39:22.544Z,102057.80
2022-12-18T06:41:54.217Z,102064.48
2022-12-18T06:44:25.810Z,102065.84
2022-12-18T06:46:57.404Z,102074.51
2022-12-18T06:49:30.706Z,102075.86
2022-12-18T06:52:02.429Z,102076.83
2022-12-18T06:54:33.904Z,102078.45
2022-12-18T06:57:05.568Z,102079.41
2022-12-18T06:59:37.160Z,102081.48
2022-12-18T07:02:08.840Z,102081.99
2022-12-18T07:04:40.544Z,102089.56
2022-12-18T07:07:12.287Z,102097.52
2022-12-18T07:09:46.670Z,102108.27
2022-12-18T07:12:18.380Z,102109.46
2022-12-18T07:14:50.081Z,102114.48
2022-12-18T07:17:21.617Z,102124.83
2022-12-18T07:19:54.222Z,102124.71
2022-12-18T07:22:27.540Z,102133.95
2022-12-18T07:24:58.954Z,102138.25
2022-12-18T07:27:30.654Z,102140.96
2022-12-18T07:30:02.628Z,102140.38
2022-12-18T07:32:34.649Z,102140.86
2022-12-18T07:35:06.712Z,102144.25
2022-12-18T07:37:38.281Z,102144.38
2022-12-18T07:40:12.238Z,102146.13
2022-12-18T07:42:43.746Z,102141.16
2022-12-18T07:45:15.921Z,102143.73
2022-12-18T07:47:47.453Z,102148.29
2022-12-18T07:50:19.506Z,102154.59
2022-12-18T07:52:51.209Z,102158.21
2022-12-18T07:55:22.686Z,102165.45
2022-12-18T07:57:59.257Z,102171.73
2022-12-18T08:00:32.533Z,102169.83
2022-12-18T08:03:04.476Z,102173.14
2022-12-18T08:05:36.038Z,102177.07
2022-12-18T08:08:07.920Z,102177.17
2022-12-18T08:10:40.281Z,102180.70
2022-12-18T08:13:11.758Z,102187.41
2022-12-18T08:15:43.290Z,102189.44
2022-12-18T08:18:14.730Z,102193.23
2022-12-18T08:20:46.393Z,102198.17
2022-12-18T08:23:18.051Z,102197.02
2022-12-18T08:25:49.915Z,102198.80
2022-12-18T08:28:21.821Z,102199.09
2022-12-18T08:30:57.612Z,102200.05
2022-12-18T08:33:30.444Z,102200.59
2022-12-18T08:36:02.704Z,102209.55
2022-12-18T08:38:35.989Z,102215.09
2022-12-18T08:41:09.088Z,102213.27
2022-12-18T08:43:57.641Z,102223.42
2022-12-18T08:46:33.764Z,102225.11
2022-12-18T08:49:05.917Z,102229.45
2022-12-18T08:51:38.429Z,102219.60
2022-12-18T08:54:13.640Z,102223.39
2022-12-18T08:56:45.190Z,102230.48
2022-12-18T08:59:19.770Z,102233.61
2022-12-18T09:01:52.612Z,102233.61
2022-12-18T09:04:24.540Z,102237.11
2022-12-18T09:06:56.225Z,102236.06
2022-12-18T09:09:28.249Z,102238.34
2022-12-18T09:11:59.728Z,102234.36
2022-12-18T09:14:31.460Z,102238.46
2022-12-18T09:17:03.250Z,102239.98
2022-12-18T09:19:35.170Z,102244.38
2022-12-18T09:22:06.647Z,102244.52
2022-12-18T09:24:38.281Z,102245.92
2022-12-18T09:27:10.053Z,102253.90
2022-12-18T09:29:41.661Z,102255.83
2022-12-18T09:32:16.369Z,102257.45
2022-12-18T09:34:53.619Z,102261.08
2022-12-18T09:37:25.220Z,102267.35
2022-12-18T09:39:56.851Z,102268.10
2022-12-18T09:42:28.520Z,102268.44
2022-12-18T09:45:01.075Z,102269.10
2022-12-18T09:47:38.773Z,102272.81
2022-12-18T09:50:24.800Z,102271.09
2022-12-18T09:52:59.468Z,102277.02
2022-12-18T09:55:37.572Z,102272.20
2022-12-18T09:58:17.967Z,102265.84
2022-12-18T10:00:49.581Z,102263.69
2022-12-18T10:03:21.276Z,102269.17
2022-12-18T10:06:02.129Z,102266.42
2022-12-18T10:08:45.339Z,102272.96
2022-12-18T10:11:32.390Z,102279.14
2022-12-18T10:14:11.422Z,102275.73
2022-12-18T10:16:52.086Z,102273.85
2022-12-18T10:19:53.995Z,102267.32
2022-12-18T10:22:40.789Z,102265.83
2022-12-18T10:25:24.574Z,102272.85
2022-12-18T10:28:00.273Z,102272.90
2022-12-18T10:30:31.983Z,102271.61
2022-12-18T10:33:06.972Z,102272.27
2022-12-18T10:35:39.328Z,102274.20
2022-12-18T10:38:27.121Z,102274.81
2022-12-18T10:41:01.143Z,102269.07
2022-12-18T10:43:35.037Z,102265.90
2022-12-18T10:46:18.284Z,102263.83
2022-12-18T10:49:00.546Z,102267.45
2022-12-18T10:51:35.718Z,102268.48
2022-12-18T10:54:09.717Z,102265.86
2022-12-18T10:56:41.892Z,102265.17
2022-12-18T10:59:17.094Z,102270.75
2022-12-18T11:01:56.505Z,102273.38
2022-12-18T11:04:30.109Z,102275.27
2022-12-18T11:07:04.281Z,102271.87
2022-12-18T11:09:37.442Z,102275.92
2022-12-18T11:12:18.987Z,102281.89
2022-12-18T11:14:53.365Z,102284.16
2022-12-18T11:17:30.822Z,102281.42
2022-12-18T11:20:04.055Z,102276.21
2022-12-18T11:22:37.894Z,102274.86
2022-12-18T11:25:33.032Z,102277.42
2022-12-18T11:28:07.392Z,102286.89
2022-12-18T11:30:40.404Z,102285.95
2022-12-18T11:33:18.345Z,102284.48
2022-12-18T11:35:54.591Z,102286.21
2022-12-18T11:38:29.519Z,102288.65
2022-12-18T11:41:06.770Z,102293.16
2022-12-18T11:43:41.671Z,102296.80
2022-12-18T11:46:19.812Z,102294.34
2022-12-18T11:48:59.148Z,102293.45
2022-12-18T11:51:36.263Z,102295.02
2022-12-18T11:54:15.690Z,102286.91
2022-12-18T11:56:51.835Z,102275.04
2022-12-18T11:59:33.040Z,102277.01
2022-12-18T12:02:19.073Z,102279.97
2022-12-18T12:05:06.858Z,102281.17
2022-12-18T12:07:47.915Z,102282.53
2022-12-18T12:10:36.420Z,102287.31
2022-12-18T12:13:25.253Z,102294.61
2022-12-18T12:16:09.517Z,102307.42
2022-12-18T12:18:56.456Z,102317.21
2022-12-18T12:21:37.356Z,102321.15
2022-12-18T12:24:24.375Z,102321.45
2022-12-18T12:27:08.115Z,102322.80
2022-12-18T12:29:52.499Z,102319.63
2022-12-18T12:32:36.157Z,102319.44
2022-12-18T12:35:21.089Z,102324.27
2022-12-18T12:38:01.529Z,102333.76
2022-12-18T12:41:00.552Z,102340.98
2022-12-18T12:43:36.378Z,102337.88
2022-12-18T12:46:11.258Z,102335.90
2022-12-18T12:48:48.733Z,102335.23
2022-12-18T12:51:24.003Z,102342.29
2022-12-18T12:53:59.016Z,102347.81
2022-12-18T12:56:48.802Z,102354.09
2022-12-18T12:59:27.888Z,102362.61
2022-12-18T13:02:07.431Z,102364.31
2022-12-18T13:04:45.715Z,102361.70
2022-12-18T13:07:23.865Z,102359.28
2022-12-18T13:10:26.962Z,102362.23
2022-12-18T13:13:03.440Z,102359.93
2022-12-18T13:16:06.599Z,102366.13
2022-12-18T13:18:39.900Z,102369.77
2022-12-18T13:21:23.179Z,102375.27
2022-12-18T13:23:55.525Z,102375.61
2022-12-18T13:26:37.182Z,102378.01
2022-12-18T13:29:09.361Z,102380.39
2022-12-18T13:32:04.246Z,102383.23
2022-12-18T13:34:36.418Z,102386.38
2022-12-18T13:37:45.145Z,102381.36
2022-12-18T13:40:58.149Z,102373.50
2022-12-18T13:43:33.959Z,102370.58
2022-12-18T13:46:23.589Z,102373.30
2022-12-18T13:49:05.785Z,102370.65
2022-12-18T13:51:41.999Z,102371.48
2022-12-18T13:54:27.417Z,102376.36
2022-12-18T13:56:58.988Z,102379.70
2022-12-18T13:59:35.663Z,102385.41
2022-12-18T14:02:17.601Z,102386.64
2022-12-18T14:04:53.173Z,102394.39
2022-12-18T14:07:27.186Z,102399.05
2022-12-18T14:10:26.041Z,102398.73
2022-12-18T14:13:00.371Z,102410.06
2022-12-18T14:15:37.573Z,102414.88
2022-12-18T14:18:23.264Z,102411.92
2022-12-18T14:20:57.638Z,102410.55
2022-12-18T14:23:35.713Z,102415.41
2022-12-18T14:26:28.881Z,102422.66
2022-12-18T14:29:02.882Z,102427.67
2022-12-18T14:31:36.268Z,102428.58
2022-12-18T14:34:07.882Z,102434.44
2022-12-18T14:36:41.260Z,102435.11
2022-12-18T14:39:21.100Z,102436.84
2022-12-18T14:41:55.157Z,102431.33
2022-12-18T14:44:34.564Z,102431.17
2022-12-18T14:47:18.760Z,102427.72
2022-12-18T14:49:52.186Z,102420.99
2022-12-18T14:52:30.516Z,102434.26
2022-12-18T14:55:02.501Z,102429.27
2022-12-18T14:57:41.982Z,102426.69
2022-12-18T15:00:25.626Z,102424.27
2022-12-18T15:02:59.478Z,102426.52
2022-12-18T15:05:34.667Z,102426.68
2022-12-18T15:08:21.733Z,102433.74
2022-12-18T15:10:55.727Z,102437.70
2022-12-18T15:13:30.357Z,102436.48
2022-12-18T15:16:14.759Z,102437.18
2022-12-18T15:18:56.423Z,102438.40
2022-12-18T15:21:32.412Z,102441.33
2022-12-18T15:24:06.027Z,102445.46
2022-12-18T15:26:42.957Z,102444.77
2022-12-18T15:29:28.061Z,102443.55
2022-12-18T15:32:23.873Z,102444.59
2022-12-18T15:35:15.184Z,102444.59
2022-12-18T15:37:49.120Z,102447.36
2022-12-18T15:40:27.146Z,102450.98
2022-12-18T15:43:18.643Z,102454.58
2022-12-18T15:45:52.239Z,102455.96
2022-12-18T15:48:26.848Z,102457.00
2022-12-18T15:51:02.167Z,102460.95
2022-12-18T15:53:37.833Z,102464.73
2022-12-18T15:56:35.413Z,102462.16
2022-12-18T15:59:14.810Z,102455.61
2022-12-18T16:01:50.739Z,102449.41
2022-12-18T16:04:27.177Z,102448.02
2022-12-18T16:07:17.638Z,102449.92
2022-12-18T16:09:54.707Z,102462.64
2022-12-18T16:12:31.116Z,102469.35
2022-12-18T16:15:06.791Z,102475.54
2022-12-18T16:17:43.891Z,102469.70
2022-12-18T16:20:20.766Z,102468.15
2022-12-18T16:22:58.168Z,102465.54
2022-12-18T16:25:32.952Z,102462.41
2022-12-18T16:28:06.756Z,102458.25
2022-12-18T16:30:45.435Z,102460.16
2022-12-18T16:33:18.815Z,102470.95
2022-12-18T16:36:00.426Z,102479.37
2022-12-18T16:38:35.864Z,102484.73
2022-12-18T16:41:38.152Z,102486.96
2022-12-18T16:44:15.935Z,102478.05
2022-12-18T16:46:50.051Z,102480.27
2022-12-18T16:49:27.752Z,102482.17
2022-12-18T16:52:02.672Z,102480.41
2022-12-18T16:54:37.550Z,102485.23
2022-12-18T16:57:13.635Z,102486.08
2022-12-18T16:59:51.467Z,102486.37
2022-12-18T17:02:29.197Z,102481.83
2022-12-18T17:05:04.356Z,102483.89
2022-12-18T17:07:39.729Z,102484.57
2022-12-18T17:10:15.465Z,102491.13
2022-12-18T17:12:48.273Z,102496.84
2022-12-18T17:15:22.705Z,102505.21
2022-12-18T17:17:57.091Z,102508.79
2022-12-18T17:20:31.517Z,102512.09
2022-12-18T17:23:08.157Z,102523.48
2022-12-18T17:25:44.677Z,102523.69
2022-12-18T17:28:17.541Z,102522.96
2022-12-18T17:30:51.044Z,102516.74
2022-12-18T17:33:24.282Z,102519.30
2022-12-18T17:36:02.113Z,102519.05
2022-12-18T17:38:36.940Z,102515.21
2022-12-18T17:41:12.338Z,102507.83
2022-12-18T17:43:52.559Z,102509.20
2022-12-18T17:46:32.177Z,102510.81
2022-12-18T17:49:07.057Z,102508.93
2022-12-18T17:51:43.369Z,102512.52
2022-12-18T17:54:19.333Z,102510.77
2022-12-18T17:56:57.021Z,102507.53
2022-12-18T17:59:34.181Z,102499.84
2022-12-18T18:02:08.091Z,102498.78
2022-12-18T18:04:42.496Z,102507.19
2022-12-18T18:07:20.821Z,102513.70
2022-12-18T18:09:55.594Z,102505.61
2022-12-18T18:12:49.411Z,102491.98
2022-12-18T18:15:25.127Z,102490.21
2022-12-18T18:17:58.974Z,102494.50
2022-12-18T18:20:33.565Z,102492.77
2022-12-18T18:23:07.251Z,102485.89
2022-12-18T18:25:44.724Z,102493.98
2022-12-18T18:28:18.979Z,102495.37
2022-12-18T18:30:52.589Z,102491.73
2022-12-18T18:33:27.050Z,102496.18
2022-12-18T18:36:01.332Z,102496.14
2022-12-18T18:38:35.559Z,102497.48
2022-12-18T18:41:10.378Z,102501.66
2022-12-18T18:43:42.454Z,102503.99
2022-12-18T18:46:19.349Z,102501.16
2022-12-18T18:48:52.604Z,102497.58
2022-12-18T18:51:28.863Z,102493.70
2022-12-18T18:54:06.123Z,102492.73
2022-12-18T18:59:33.297Z,102491.34
2022-12-18T19:02:07.133Z,102490.12
2022-12-18T19:04:44.736Z,102497.89
2022-12-18T19:07:29.469Z,102504.44
2022-12-18T19:10:07.265Z,102512.47
2022-12-18T19:12:57.613Z,102507.12
2022-12-18T19:15:30.962Z,102499.91
2022-12-18T19:18:04.833Z,102499.33
2022-12-18T19:20:42.006Z,102504.55
2022-12-18T19:23:15.293Z,102511.89
2022-12-18T19:25:50.762Z,102514.48
2022-12-18T19:28:34.456Z,102512.86
2022-12-18T19:31:13.652Z,102508.02
2022-12-18T19:33:52.630Z,102508.77
2022-12-18T19:36:28.744Z,102502.61
2022-12-18T19:39:06.599Z,102498.66
2022-12-18T19:41:40.970Z,102502.45
2022-12-18T19:44:14.497Z,102504.27
2022-12-18T19:46:52.224Z,102506.16
2022-12-18T19:49:34.707Z,102504.90
2022-12-18T19:52:12.510Z,102501.36
2022-12-18T19:54:45.998Z,102516.52
2022-12-18T19:57:19.220Z,102518.66
2022-12-18T19:59:53.147Z,102521.19
2022-12-18T20:02:29.726Z,102523.33
2022-12-18T20:05:08.994Z,102523.81
2022-12-18T20:07:42.394Z,102529.23
2022-12-18T20:10:19.492Z,102534.14
2022-12-18T20:12:55.243Z,102537.20
2022-12-18T20:15:29.908Z,102541.52
2022-12-18T20:18:02.989Z,102546.58
2022-12-18T20:20:37.421Z,102547.88
2022-12-18T20:23:08.214Z,102550.30
2022-12-18T20:25:41.887Z,102550.16
2022-12-18T20:28:15.325Z,102545.66
2022-12-18T20:30:49.531Z,102545.51
2022-12-18T20:33:30.418Z,102550.02
2022-12-18T20:36:07.737Z,102558.54
2022-12-18T20:38:40.933Z,102556.45
2022-12-18T20:41:22.386Z,102557.05
2022-12-18T20:43:55.693Z,102550.36
2022-12-18T20:46:28.330Z,102549.61
2022-12-18T20:49:02.204Z,102556.64
2022-12-18T20:51:35.957Z,102552.51
2022-12-18T20:54:12.899Z,102550.37
2022-12-18T20:56:59.217Z,102542.55
2022-12-18T20:59:37.680Z,102534.52
2022-12-18T21:02:09.793Z,102524.98
2022-12-18T21:04:42.873Z,102520.66
2022-12-18T21:07:16.199Z,102522.42
2022-12-18T21:09:50.438Z,102519.00
2022-12-18T21:12:43.949Z,102510.13
2022-12-18T21:15:31.761Z,102500.89
2022-12-18T21:18:03.711Z,102495.26
2022-12-18T21:20:36.395Z,102493.91
2022-12-18T21:23:16.470Z,102486.56
2022-12-18T21:25:54.724Z,102485.75
2022-12-18T21:28:32.295Z,102489.70
2022-12-18T21:31:08.139Z,102486.23
2022-12-18T21:33:43.518Z,102493.36
2022-12-18T21:36:16.270Z,102491.55
2022-12-18T21:38:48.732Z,102495.54
2022-12-18T21:41:42.276Z,102498.92
2022-12-18T21:44:17.814Z,102499.98
2022-12-18T21:46:58.232Z,102499.67
2022-12-18T21:49:33.808Z,102495.36
2022-12-18T21:52:06.178Z,102498.23
2022-12-18T21:54:38.771Z,102501.06
2022-12-18T21:57:13.808Z,102500.41
2022-12-18T21:59:47.354Z,102491.48
2022-12-18T22:02:21.586Z,102488.61
2022-12-18T22:04:55.815Z,102475.27
2022-12-18T22:07:29.345Z,102467.91
2022-12-18T22:10:02.015Z,102466.38
2022-12-18T22:12:43.742Z,102463.83
2022-12-18T22:15:21.489Z,102462.02
2022-12-18T22:18:00.352Z,102465.20
2022-12-18T22:20:32.776Z,102469.00
2022-12-18T22:23:06.091Z,102469.48
2022-12-18T22:25:39.907Z,102467.29
2022-12-18T22:28:29.244Z,102466.46
2022-12-18T22:31:01.300Z,102461.19
2022-12-18T22:33:33.071Z,102463.18
2022-12-18T22:36:14.123Z,102457.29
2022-12-18T22:38:49.857Z,102446.61
2022-12-18T22:41:22.661Z,102446.91
2022-12-18T22:43:54.225Z,102447.45
2022-12-18T22:46:28.506Z,102449.55
2022-12-18T22:49:00.335Z,102449.84
2022-12-18T22:51:32.374Z,102447.90
2022-12-18T22:54:04.020Z,102444.44
2022-12-18T22:56:35.501Z,102442.73
2022-12-18T22:59:07.491Z,102442.02
2022-12-18T23:01:40.379Z,102443.84
2022-12-18T23:04:13.206Z,102446.30
2022-12-18T23:06:45.621Z,102444.21
2022-12-18T23:09:21.350Z,102436.71
2022-12-18T23:11:52.916Z,102437.30
2022-12-18T23:14:25.327Z,102432.88
2022-12-18T23:16:57.161Z,102429.60
2022-12-18T23:19:29.389Z,102419.20
2022-12-18T23:22:05.038Z,102416.17
2022-12-18T23:24:39.246Z,102415.80
2022-12-18T23:27:11.602Z,102412.40
2022-12-18T23:29:44.020Z,102409.30
2022-12-18T23:32:16.976Z,102403.78
2022-12-18T23:34:52.044Z,102402.50
2022-12-18T23:37:56.965Z,102403.10
2022-12-18T23:40:16.516Z,102410.84
2022-12-18T23:42:48.129Z,102411.46
2022-12-18T23:45:19.877Z,102408.89
2022-12-18T23:47:51.488Z,102406.30
2022-12-18T23:50:29.094Z,102404.46
2022-12-18T23:53:05.266Z,102408.88
2022-12-18T23:55:41.887Z,102407.08
2022-12-18T23:58:19.892Z,102404.98
